sensor_id;sensor_type;location;lat;lon;timestamp;P1;durP1;ratioP1;P2;durP2;ratioP2
7334;SDS011;3708;42.632;23.378;2024-01-15T00:02:17;13.23;;;6.57;;
7334;SDS011;3708;42.632;23.378;2024-01-15T00:04:43;13.90;;;7.18;;
7334;SDS011;3708;42.632;23.378;2024-01-15T00:07:09;16.35;;;7.72;;
7334;SDS011;3708;42.632;23.378;2024-01-15T00:09:35;14.20;;;7.22;;
7334;SDS011;3708;42.632;23.378;2024-01-15T00:12:01;18.40;;;8.73;;
7334;SDS011;3708;42.632;23.378;2024-01-15T00:14:27;21.00;;;8.02;;
7334;SDS011;3708;42.632;23.378;2024-01-15T00:16:53;22.00;;;8.52;;
7334;SDS011;3708;42.632;23.378;2024-01-15T00:19:20;19.00;;;7.00;;
7334;SDS011;3708;42.632;23.378;2024-01-15T00:21:47;16.15;;;8.15;;
7334;SDS011;3708;42.632;23.378;2024-01-15T00:24:13;15.68;;;6.80;;
7334;SDS011;3708;42.632;23.378;2024-01-15T00:26:39;19.95;;;7.47;;
7334;SDS011;3708;42.632;23.378;2024-01-15T00:29:06;21.88;;;8.55;;
7334;SDS011;3708;42.632;23.378;2024-01-15T00:31:32;13.13;;;7.07;;
7334;SDS011;3708;42.632;23.378;2024-01-15T00:33:58;13.25;;;7.25;;
7334;SDS011;3708;42.632;23.378;2024-01-15T00:36:23;12.80;;;6.93;;
7334;SDS011;3708;42.632;23.378;2024-01-15T00:38:49;16.35;;;7.47;;
7334;SDS011;3708;42.632;23.378;2024-01-15T00:41:15;16.13;;;8.30;;
7334;SDS011;3708;42.632;23.378;2024-01-15T00:43:40;19.80;;;8.07;;
7334;SDS011;3708;42.632;23.378;2024-01-15T00:46:06;16.83;;;7.70;;
7334;SDS011;3708;42.632;23.378;2024-01-15T00:48:32;23.33;;;9.07;;
7334;SDS011;3708;42.632;23.378;2024-01-15T00:50:58;12.68;;;7.18;;
7334;SDS011;3708;42.632;23.378;2024-01-15T00:53:23;24.10;;;8.13;;
7334;SDS011;3708;42.632;23.378;2024-01-15T00:55:51;15.48;;;7.93;;
7334;SDS011;3708;42.632;23.378;2024-01-15T00:58:16;17.70;;;8.20;;
7334;SDS011;3708;42.632;23.378;2024-01-15T01:00:42;15.80;;;7.05;;
7334;SDS011;3708;42.632;23.378;2024-01-15T01:03:08;18.15;;;8.75;;
7334;SDS011;3708;42.632;23.378;2024-01-15T01:05:34;15.57;;;7.22;;
7334;SDS011;3708;42.632;23.378;2024-01-15T01:07:59;15.82;;;8.00;;
7334;SDS011;3708;42.632;23.378;2024-01-15T01:10:25;22.38;;;8.55;;
7334;SDS011;3708;42.632;23.378;2024-01-15T01:12:51;23.20;;;9.00;;
7334;SDS011;3708;42.632;23.378;2024-01-15T01:15:17;18.70;;;8.90;;
7334;SDS011;3708;42.632;23.378;2024-01-15T01:17:42;21.55;;;9.75;;
7334;SDS011;3708;42.632;23.378;2024-01-15T01:20:08;15.63;;;6.65;;
7334;SDS011;3708;42.632;23.378;2024-01-15T01:22:35;19.27;;;7.50;;
7334;SDS011;3708;42.632;23.378;2024-01-15T01:25:01;19.25;;;8.13;;
7334;SDS011;3708;42.632;23.378;2024-01-15T01:27:27;29.88;;;11.38;;
7334;SDS011;3708;42.632;23.378;2024-01-15T01:29:52;20.55;;;9.85;;
7334;SDS011;3708;42.632;23.378;2024-01-15T01:32:18;20.67;;;8.98;;
7334;SDS011;3708;42.632;23.378;2024-01-15T01:34:43;19.08;;;8.43;;
7334;SDS011;3708;42.632;23.378;2024-01-15T01:37:09;18.80;;;8.07;;
7334;SDS011;3708;42.632;23.378;2024-01-15T01:39:38;25.17;;;7.80;;
7334;SDS011;3708;42.632;23.378;2024-01-15T01:42:04;23.10;;;9.68;;
7334;SDS011;3708;42.632;23.378;2024-01-15T01:44:30;16.52;;;8.23;;
7334;SDS011;3708;42.632;23.378;2024-01-15T01:46:56;16.08;;;6.80;;
7334;SDS011;3708;42.632;23.378;2024-01-15T01:49:22;19.38;;;7.43;;
7334;SDS011;3708;42.632;23.378;2024-01-15T01:51:48;20.77;;;7.93;;
7334;SDS011;3708;42.632;23.378;2024-01-15T01:54:14;14.25;;;7.28;;
7334;SDS011;3708;42.632;23.378;2024-01-15T01:56:41;18.65;;;7.80;;
7334;SDS011;3708;42.632;23.378;2024-01-15T01:59:07;11.07;;;6.18;;
7334;SDS011;3708;42.632;23.378;2024-01-15T02:01:35;14.35;;;6.40;;
7334;SDS011;3708;42.632;23.378;2024-01-15T02:04:01;12.10;;;7.13;;
7334;SDS011;3708;42.632;23.378;2024-01-15T02:06:27;12.77;;;6.95;;
7334;SDS011;3708;42.632;23.378;2024-01-15T02:08:52;22.45;;;8.23;;
7334;SDS011;3708;42.632;23.378;2024-01-15T02:11:18;17.25;;;7.80;;
7334;SDS011;3708;42.632;23.378;2024-01-15T02:13:44;14.70;;;7.40;;
7334;SDS011;3708;42.632;23.378;2024-01-15T02:16:09;14.05;;;6.85;;
7334;SDS011;3708;42.632;23.378;2024-01-15T02:18:45;15.32;;;6.57;;
7334;SDS011;3708;42.632;23.378;2024-01-15T02:21:11;16.52;;;6.72;;
7334;SDS011;3708;42.632;23.378;2024-01-15T02:23:37;21.92;;;7.35;;
7334;SDS011;3708;42.632;23.378;2024-01-15T02:26:04;10.75;;;6.35;;
7334;SDS011;3708;42.632;23.378;2024-01-15T02:28:30;18.15;;;6.80;;
7334;SDS011;3708;42.632;23.378;2024-01-15T02:30:55;13.75;;;7.10;;
7334;SDS011;3708;42.632;23.378;2024-01-15T02:33:22;13.93;;;6.25;;
7334;SDS011;3708;42.632;23.378;2024-01-15T02:35:47;23.70;;;7.45;;
7334;SDS011;3708;42.632;23.378;2024-01-15T02:38:15;11.98;;;6.72;;
7334;SDS011;3708;42.632;23.378;2024-01-15T02:40:41;8.80;;;5.45;;
7334;SDS011;3708;42.632;23.378;2024-01-15T02:43:08;12.35;;;6.43;;
7334;SDS011;3708;42.632;23.378;2024-01-15T02:45:33;9.73;;;5.80;;
7334;SDS011;3708;42.632;23.378;2024-01-15T02:47:59;11.43;;;5.55;;
7334;SDS011;3708;42.632;23.378;2024-01-15T02:50:24;16.02;;;6.65;;
7334;SDS011;3708;42.632;23.378;2024-01-15T02:52:50;10.13;;;5.45;;
7334;SDS011;3708;42.632;23.378;2024-01-15T02:55:15;11.93;;;5.82;;
7334;SDS011;3708;42.632;23.378;2024-01-15T02:57:41;8.63;;;4.05;;
7334;SDS011;3708;42.632;23.378;2024-01-15T03:00:07;18.17;;;6.45;;
7334;SDS011;3708;42.632;23.378;2024-01-15T03:02:37;9.50;;;5.55;;
7334;SDS011;3708;42.632;23.378;2024-01-15T03:05:08;11.50;;;6.28;;
7334;SDS011;3708;42.632;23.378;2024-01-15T03:07:37;10.98;;;6.05;;
7334;SDS011;3708;42.632;23.378;2024-01-15T03:10:03;9.35;;;5.82;;
7334;SDS011;3708;42.632;23.378;2024-01-15T03:12:29;15.55;;;6.63;;
7334;SDS011;3708;42.632;23.378;2024-01-15T03:14:55;13.68;;;6.03;;
7334;SDS011;3708;42.632;23.378;2024-01-15T03:17:20;12.82;;;5.95;;
7334;SDS011;3708;42.632;23.378;2024-01-15T03:19:46;12.15;;;6.03;;
7334;SDS011;3708;42.632;23.378;2024-01-15T03:22:12;14.55;;;6.20;;
7334;SDS011;3708;42.632;23.378;2024-01-15T03:24:37;14.43;;;7.00;;
7334;SDS011;3708;42.632;23.378;2024-01-15T03:27:03;11.77;;;6.65;;
7334;SDS011;3708;42.632;23.378;2024-01-15T03:29:29;12.07;;;5.57;;
7334;SDS011;3708;42.632;23.378;2024-01-15T03:31:54;13.48;;;5.72;;
7334;SDS011;3708;42.632;23.378;2024-01-15T03:34:20;12.43;;;6.47;;
7334;SDS011;3708;42.632;23.378;2024-01-15T03:36:45;15.43;;;5.95;;
7334;SDS011;3708;42.632;23.378;2024-01-15T03:39:11;13.07;;;5.53;;
7334;SDS011;3708;42.632;23.378;2024-01-15T03:41:36;12.98;;;5.68;;
7334;SDS011;3708;42.632;23.378;2024-01-15T03:44:02;10.75;;;5.28;;
7334;SDS011;3708;42.632;23.378;2024-01-15T03:46:28;10.45;;;5.72;;
7334;SDS011;3708;42.632;23.378;2024-01-15T03:48:53;13.63;;;6.20;;
7334;SDS011;3708;42.632;23.378;2024-01-15T03:51:19;7.57;;;4.88;;
7334;SDS011;3708;42.632;23.378;2024-01-15T03:53:45;18.90;;;7.78;;
7334;SDS011;3708;42.632;23.378;2024-01-15T03:56:10;15.40;;;6.90;;
7334;SDS011;3708;42.632;23.378;2024-01-15T03:58:36;7.70;;;3.92;;
7334;SDS011;3708;42.632;23.378;2024-01-15T04:01:01;15.50;;;6.57;;
7334;SDS011;3708;42.632;23.378;2024-01-15T04:03:27;13.07;;;6.10;;
7334;SDS011;3708;42.632;23.378;2024-01-15T04:05:53;12.43;;;6.53;;
7334;SDS011;3708;42.632;23.378;2024-01-15T04:08:18;15.15;;;6.50;;
7334;SDS011;3708;42.632;23.378;2024-01-15T04:10:44;16.52;;;6.30;;
7334;SDS011;3708;42.632;23.378;2024-01-15T04:13:09;20.45;;;7.32;;
7334;SDS011;3708;42.632;23.378;2024-01-15T04:15:35;17.50;;;7.10;;
7334;SDS011;3708;42.632;23.378;2024-01-15T04:18:02;13.73;;;6.57;;
7334;SDS011;3708;42.632;23.378;2024-01-15T04:20:27;17.98;;;7.35;;
7334;SDS011;3708;42.632;23.378;2024-01-15T04:22:53;15.30;;;7.53;;
7334;SDS011;3708;42.632;23.378;2024-01-15T04:25:18;12.32;;;6.38;;
7334;SDS011;3708;42.632;23.378;2024-01-15T04:27:44;21.98;;;8.25;;
7334;SDS011;3708;42.632;23.378;2024-01-15T04:30:10;9.68;;;6.43;;
7334;SDS011;3708;42.632;23.378;2024-01-15T04:32:35;15.20;;;7.97;;
7334;SDS011;3708;42.632;23.378;2024-01-15T04:35:01;15.50;;;7.38;;
7334;SDS011;3708;42.632;23.378;2024-01-15T04:37:27;17.00;;;7.22;;
7334;SDS011;3708;42.632;23.378;2024-01-15T04:39:52;19.95;;;7.72;;
7334;SDS011;3708;42.632;23.378;2024-01-15T04:44:45;11.48;;;6.38;;
7334;SDS011;3708;42.632;23.378;2024-01-15T04:47:11;14.07;;;7.20;;
7334;SDS011;3708;42.632;23.378;2024-01-15T04:49:36;14.60;;;6.50;;
7334;SDS011;3708;42.632;23.378;2024-01-15T04:52:02;14.07;;;7.50;;
7334;SDS011;3708;42.632;23.378;2024-01-15T04:54:28;16.48;;;6.93;;
7334;SDS011;3708;42.632;23.378;2024-01-15T04:56:53;18.05;;;7.70;;
7334;SDS011;3708;42.632;23.378;2024-01-15T04:59:19;18.20;;;7.82;;
7334;SDS011;3708;42.632;23.378;2024-01-15T05:01:44;16.30;;;7.45;;
7334;SDS011;3708;42.632;23.378;2024-01-15T05:04:10;17.65;;;7.35;;
7334;SDS011;3708;42.632;23.378;2024-01-15T05:06:35;13.80;;;7.70;;
7334;SDS011;3708;42.632;23.378;2024-01-15T05:09:01;22.15;;;7.95;;
7334;SDS011;3708;42.632;23.378;2024-01-15T05:11:28;20.67;;;6.80;;
7334;SDS011;3708;42.632;23.378;2024-01-15T05:13:53;12.23;;;7.20;;
7334;SDS011;3708;42.632;23.378;2024-01-15T05:16:19;16.35;;;7.68;;
7334;SDS011;3708;42.632;23.378;2024-01-15T05:18:45;16.88;;;6.78;;
7334;SDS011;3708;42.632;23.378;2024-01-15T05:21:10;11.80;;;5.47;;
7334;SDS011;3708;42.632;23.378;2024-01-15T05:23:36;14.85;;;7.38;;
7334;SDS011;3708;42.632;23.378;2024-01-15T05:26:04;15.23;;;7.05;;
7334;SDS011;3708;42.632;23.378;2024-01-15T05:28:30;11.93;;;5.97;;
7334;SDS011;3708;42.632;23.378;2024-01-15T05:30:56;17.40;;;8.27;;
7334;SDS011;3708;42.632;23.378;2024-01-15T05:33:22;22.90;;;7.97;;
7334;SDS011;3708;42.632;23.378;2024-01-15T05:35:48;14.85;;;6.75;;
7334;SDS011;3708;42.632;23.378;2024-01-15T05:38:15;16.98;;;7.15;;
7334;SDS011;3708;42.632;23.378;2024-01-15T05:40:41;14.93;;;7.57;;
7334;SDS011;3708;42.632;23.378;2024-01-15T05:43:06;16.75;;;7.07;;
7334;SDS011;3708;42.632;23.378;2024-01-15T05:45:33;19.98;;;6.80;;
7334;SDS011;3708;42.632;23.378;2024-01-15T05:48:00;14.23;;;6.28;;
7334;SDS011;3708;42.632;23.378;2024-01-15T05:50:26;8.65;;;5.13;;
7334;SDS011;3708;42.632;23.378;2024-01-15T05:52:52;23.75;;;8.98;;
7334;SDS011;3708;42.632;23.378;2024-01-15T05:55:17;12.98;;;6.80;;
7334;SDS011;3708;42.632;23.378;2024-01-15T05:57:44;20.27;;;9.20;;
7334;SDS011;3708;42.632;23.378;2024-01-15T06:00:10;20.85;;;9.68;;
7334;SDS011;3708;42.632;23.378;2024-01-15T06:02:37;28.13;;;9.25;;
7334;SDS011;3708;42.632;23.378;2024-01-15T06:05:04;21.33;;;8.38;;
7334;SDS011;3708;42.632;23.378;2024-01-15T06:07:35;7.82;;;4.07;;
7334;SDS011;3708;42.632;23.378;2024-01-15T06:10:02;17.45;;;9.35;;
7334;SDS011;3708;42.632;23.378;2024-01-15T06:12:28;22.40;;;10.43;;
7334;SDS011;3708;42.632;23.378;2024-01-15T06:14:54;16.65;;;7.55;;
7334;SDS011;3708;42.632;23.378;2024-01-15T06:17:20;19.40;;;8.25;;
7334;SDS011;3708;42.632;23.378;2024-01-15T06:19:45;18.23;;;9.00;;
7334;SDS011;3708;42.632;23.378;2024-01-15T06:22:11;16.45;;;9.18;;
7334;SDS011;3708;42.632;23.378;2024-01-15T06:24:36;22.08;;;9.82;;
7334;SDS011;3708;42.632;23.378;2024-01-15T06:27:02;23.13;;;9.85;;
7334;SDS011;3708;42.632;23.378;2024-01-15T06:29:28;24.27;;;10.68;;
7334;SDS011;3708;42.632;23.378;2024-01-15T06:31:53;22.88;;;9.98;;
7334;SDS011;3708;42.632;23.378;2024-01-15T06:34:19;19.20;;;9.90;;
7334;SDS011;3708;42.632;23.378;2024-01-15T06:36:45;23.58;;;9.68;;
7334;SDS011;3708;42.632;23.378;2024-01-15T06:39:10;26.65;;;11.30;;
7334;SDS011;3708;42.632;23.378;2024-01-15T06:41:36;24.25;;;10.57;;
7334;SDS011;3708;42.632;23.378;2024-01-15T06:44:11;23.02;;;11.32;;
7334;SDS011;3708;42.632;23.378;2024-01-15T06:46:44;30.90;;;12.15;;
7334;SDS011;3708;42.632;23.378;2024-01-15T06:49:10;22.92;;;10.65;;
7334;SDS011;3708;42.632;23.378;2024-01-15T06:51:36;32.10;;;13.73;;
7334;SDS011;3708;42.632;23.378;2024-01-15T06:54:02;28.42;;;10.88;;
7334;SDS011;3708;42.632;23.378;2024-01-15T06:56:27;36.72;;;11.35;;
7334;SDS011;3708;42.632;23.378;2024-01-15T06:58:53;32.20;;;11.57;;
7334;SDS011;3708;42.632;23.378;2024-01-15T07:01:18;23.63;;;9.80;;
7334;SDS011;3708;42.632;23.378;2024-01-15T07:03:44;21.02;;;9.93;;
7334;SDS011;3708;42.632;23.378;2024-01-15T07:06:10;30.58;;;12.10;;
7334;SDS011;3708;42.632;23.378;2024-01-15T07:08:36;26.42;;;11.48;;
7334;SDS011;3708;42.632;23.378;2024-01-15T07:11:05;29.25;;;11.90;;
7334;SDS011;3708;42.632;23.378;2024-01-15T07:13:31;28.08;;;12.15;;
7334;SDS011;3708;42.632;23.378;2024-01-15T07:15:57;19.88;;;10.82;;
7334;SDS011;3708;42.632;23.378;2024-01-15T07:18:22;17.08;;;8.85;;
7334;SDS011;3708;42.632;23.378;2024-01-15T07:20:48;28.92;;;12.57;;
7334;SDS011;3708;42.632;23.378;2024-01-15T07:23:14;24.30;;;12.07;;
7334;SDS011;3708;42.632;23.378;2024-01-15T07:25:39;24.05;;;11.75;;
7334;SDS011;3708;42.632;23.378;2024-01-15T07:28:05;25.60;;;10.93;;
7334;SDS011;3708;42.632;23.378;2024-01-15T07:30:30;31.77;;;12.55;;
7334;SDS011;3708;42.632;23.378;2024-01-15T07:32:56;35.20;;;14.48;;
7334;SDS011;3708;42.632;23.378;2024-01-15T07:35:21;29.10;;;11.95;;
7334;SDS011;3708;42.632;23.378;2024-01-15T07:37:47;26.95;;;11.77;;
7334;SDS011;3708;42.632;23.378;2024-01-15T07:40:13;27.45;;;11.98;;
7334;SDS011;3708;42.632;23.378;2024-01-15T07:42:38;31.52;;;13.27;;
7334;SDS011;3708;42.632;23.378;2024-01-15T07:45:04;26.38;;;11.95;;
7334;SDS011;3708;42.632;23.378;2024-01-15T07:47:31;32.08;;;12.10;;
7334;SDS011;3708;42.632;23.378;2024-01-15T07:49:57;32.05;;;12.55;;
7334;SDS011;3708;42.632;23.378;2024-01-15T07:52:22;21.90;;;9.07;;
7334;SDS011;3708;42.632;23.378;2024-01-15T07:54:48;23.92;;;12.20;;
7334;SDS011;3708;42.632;23.378;2024-01-15T07:57:13;27.50;;;11.40;;
7334;SDS011;3708;42.632;23.378;2024-01-15T07:59:39;9.25;;;5.65;;
7334;SDS011;3708;42.632;23.378;2024-01-15T08:02:05;31.38;;;10.02;;
7334;SDS011;3708;42.632;23.378;2024-01-15T08:04:31;22.73;;;9.75;;
7334;SDS011;3708;42.632;23.378;2024-01-15T08:06:57;21.77;;;10.25;;
7334;SDS011;3708;42.632;23.378;2024-01-15T08:09:23;21.30;;;10.45;;
7334;SDS011;3708;42.632;23.378;2024-01-15T08:11:49;17.73;;;8.73;;
7334;SDS011;3708;42.632;23.378;2024-01-15T08:14:14;18.23;;;7.80;;
7334;SDS011;3708;42.632;23.378;2024-01-15T08:16:40;16.83;;;7.13;;
7334;SDS011;3708;42.632;23.378;2024-01-15T08:19:06;20.85;;;8.00;;
7334;SDS011;3708;42.632;23.378;2024-01-15T08:21:32;18.55;;;8.52;;
7334;SDS011;3708;42.632;23.378;2024-01-15T08:23:59;20.35;;;9.10;;
7334;SDS011;3708;42.632;23.378;2024-01-15T08:26:28;16.13;;;8.63;;
7334;SDS011;3708;42.632;23.378;2024-01-15T08:28:54;20.67;;;9.35;;
7334;SDS011;3708;42.632;23.378;2024-01-15T08:31:20;16.58;;;8.82;;
7334;SDS011;3708;42.632;23.378;2024-01-15T08:33:46;17.42;;;8.68;;
7334;SDS011;3708;42.632;23.378;2024-01-15T08:36:12;15.15;;;8.02;;
7334;SDS011;3708;42.632;23.378;2024-01-15T08:38:37;18.30;;;8.98;;
7334;SDS011;3708;42.632;23.378;2024-01-15T08:41:03;22.92;;;9.00;;
7334;SDS011;3708;42.632;23.378;2024-01-15T08:43:28;19.80;;;8.98;;
7334;SDS011;3708;42.632;23.378;2024-01-15T08:48:22;20.40;;;7.20;;
7334;SDS011;3708;42.632;23.378;2024-01-15T08:50:48;11.40;;;5.38;;
7334;SDS011;3708;42.632;23.378;2024-01-15T08:53:14;14.18;;;7.97;;
7334;SDS011;3708;42.632;23.378;2024-01-15T08:55:40;8.52;;;4.45;;
7334;SDS011;3708;42.632;23.378;2024-01-15T08:58:07;15.23;;;7.60;;
7334;SDS011;3708;42.632;23.378;2024-01-15T09:00:33;8.18;;;5.40;;
7334;SDS011;3708;42.632;23.378;2024-01-15T09:02:59;14.82;;;7.22;;
7334;SDS011;3708;42.632;23.378;2024-01-15T09:05:24;23.67;;;8.85;;
7334;SDS011;3708;42.632;23.378;2024-01-15T09:07:50;17.45;;;7.28;;
7334;SDS011;3708;42.632;23.378;2024-01-15T09:10:17;10.95;;;6.68;;
7334;SDS011;3708;42.632;23.378;2024-01-15T09:12:43;17.77;;;8.20;;
7334;SDS011;3708;42.632;23.378;2024-01-15T09:15:09;18.25;;;8.95;;
7334;SDS011;3708;42.632;23.378;2024-01-15T09:17:35;12.75;;;6.60;;
7334;SDS011;3708;42.632;23.378;2024-01-15T09:20:00;21.38;;;8.50;;
7334;SDS011;3708;42.632;23.378;2024-01-15T09:22:26;19.90;;;8.48;;
7334;SDS011;3708;42.632;23.378;2024-01-15T09:24:52;35.53;;;15.63;;
7334;SDS011;3708;42.632;23.378;2024-01-15T09:27:17;37.22;;;18.10;;
7334;SDS011;3708;42.632;23.378;2024-01-15T09:29:44;41.05;;;18.17;;
7334;SDS011;3708;42.632;23.378;2024-01-15T09:32:11;42.88;;;18.17;;
7334;SDS011;3708;42.632;23.378;2024-01-15T09:34:37;48.08;;;19.20;;
7334;SDS011;3708;42.632;23.378;2024-01-15T09:37:03;36.70;;;17.25;;
7334;SDS011;3708;42.632;23.378;2024-01-15T09:39:29;37.42;;;17.23;;
7334;SDS011;3708;42.632;23.378;2024-01-15T09:41:56;34.53;;;17.10;;
7334;SDS011;3708;42.632;23.378;2024-01-15T09:44:22;35.13;;;16.35;;
7334;SDS011;3708;42.632;23.378;2024-01-15T09:46:48;34.70;;;15.75;;
7334;SDS011;3708;42.632;23.378;2024-01-15T09:49:17;31.40;;;15.50;;
7334;SDS011;3708;42.632;23.378;2024-01-15T09:51:44;37.25;;;17.40;;
7334;SDS011;3708;42.632;23.378;2024-01-15T09:54:10;36.22;;;17.25;;
7334;SDS011;3708;42.632;23.378;2024-01-15T09:56:38;39.97;;;17.27;;
7334;SDS011;3708;42.632;23.378;2024-01-15T09:59:04;33.75;;;15.85;;
7334;SDS011;3708;42.632;23.378;2024-01-15T10:01:51;40.60;;;15.40;;
7334;SDS011;3708;42.632;23.378;2024-01-15T10:04:37;38.25;;;15.25;;
7334;SDS011;3708;42.632;23.378;2024-01-15T10:07:03;40.60;;;17.83;;
7334;SDS011;3708;42.632;23.378;2024-01-15T10:09:52;37.97;;;17.00;;
7334;SDS011;3708;42.632;23.378;2024-01-15T10:12:19;41.72;;;17.20;;
7334;SDS011;3708;42.632;23.378;2024-01-15T10:14:55;28.30;;;14.77;;
7334;SDS011;3708;42.632;23.378;2024-01-15T10:17:21;40.03;;;18.40;;
7334;SDS011;3708;42.632;23.378;2024-01-15T10:19:47;42.90;;;18.27;;
7334;SDS011;3708;42.632;23.378;2024-01-15T10:22:13;42.60;;;16.90;;
7334;SDS011;3708;42.632;23.378;2024-01-15T10:24:40;36.75;;;16.73;;
7334;SDS011;3708;42.632;23.378;2024-01-15T10:27:06;42.90;;;16.48;;
7334;SDS011;3708;42.632;23.378;2024-01-15T10:29:35;37.00;;;15.27;;
7334;SDS011;3708;42.632;23.378;2024-01-15T10:32:02;27.58;;;15.13;;
7334;SDS011;3708;42.632;23.378;2024-01-15T10:34:31;31.85;;;15.98;;
7334;SDS011;3708;42.632;23.378;2024-01-15T10:36:56;36.72;;;16.05;;
7334;SDS011;3708;42.632;23.378;2024-01-15T10:39:22;33.58;;;15.88;;
7334;SDS011;3708;42.632;23.378;2024-01-15T10:41:48;32.40;;;14.27;;
7334;SDS011;3708;42.632;23.378;2024-01-15T10:44:15;30.00;;;15.00;;
7334;SDS011;3708;42.632;23.378;2024-01-15T10:46:40;30.88;;;14.27;;
7334;SDS011;3708;42.632;23.378;2024-01-15T10:49:06;35.65;;;14.45;;
7334;SDS011;3708;42.632;23.378;2024-01-15T10:51:32;30.17;;;13.95;;
7334;SDS011;3708;42.632;23.378;2024-01-15T10:53:58;18.55;;;10.13;;
7334;SDS011;3708;42.632;23.378;2024-01-15T10:56:27;27.20;;;12.45;;
7334;SDS011;3708;42.632;23.378;2024-01-15T10:58:55;20.83;;;9.30;;
7334;SDS011;3708;42.632;23.378;2024-01-15T11:01:21;21.80;;;10.95;;
7334;SDS011;3708;42.632;23.378;2024-01-15T11:03:47;24.67;;;9.75;;
7334;SDS011;3708;42.632;23.378;2024-01-15T11:06:18;26.73;;;13.00;;
7334;SDS011;3708;42.632;23.378;2024-01-15T11:08:50;25.90;;;11.43;;
7334;SDS011;3708;42.632;23.378;2024-01-15T11:11:20;21.42;;;10.18;;
7334;SDS011;3708;42.632;23.378;2024-01-15T11:13:47;17.80;;;8.75;;
7334;SDS011;3708;42.632;23.378;2024-01-15T11:16:15;21.65;;;10.70;;
7334;SDS011;3708;42.632;23.378;2024-01-15T11:18:42;23.60;;;11.23;;
7334;SDS011;3708;42.632;23.378;2024-01-15T11:21:26;27.02;;;11.15;;
7334;SDS011;3708;42.632;23.378;2024-01-15T11:24:01;26.70;;;10.85;;
7334;SDS011;3708;42.632;23.378;2024-01-15T11:29:01;24.30;;;11.60;;
7334;SDS011;3708;42.632;23.378;2024-01-15T11:35:09;24.42;;;7.32;;
7334;SDS011;3708;42.632;23.378;2024-01-15T11:37:15;26.67;;;10.38;;
7334;SDS011;3708;42.632;23.378;2024-01-15T11:39:41;20.35;;;10.95;;
7334;SDS011;3708;42.632;23.378;2024-01-15T11:42:08;20.73;;;9.35;;
7334;SDS011;3708;42.632;23.378;2024-01-15T11:44:35;21.70;;;10.20;;
7334;SDS011;3708;42.632;23.378;2024-01-15T11:47:02;16.48;;;9.05;;
7334;SDS011;3708;42.632;23.378;2024-01-15T11:52:17;24.38;;;11.15;;
7334;SDS011;3708;42.632;23.378;2024-01-15T11:54:48;23.90;;;11.93;;
7334;SDS011;3708;42.632;23.378;2024-01-15T11:57:55;25.65;;;11.85;;
7334;SDS011;3708;42.632;23.378;2024-01-15T12:00:20;22.60;;;11.93;;
7334;SDS011;3708;42.632;23.378;2024-01-15T12:02:47;24.40;;;11.60;;
7334;SDS011;3708;42.632;23.378;2024-01-15T12:05:15;19.33;;;10.60;;
7334;SDS011;3708;42.632;23.378;2024-01-15T12:07:48;27.10;;;13.00;;
7334;SDS011;3708;42.632;23.378;2024-01-15T12:15:28;25.80;;;12.13;;
7334;SDS011;3708;42.632;23.378;2024-01-15T12:17:55;28.02;;;12.57;;
7334;SDS011;3708;42.632;23.378;2024-01-15T12:20:28;30.35;;;12.30;;
7334;SDS011;3708;42.632;23.378;2024-01-15T12:22:57;32.65;;;12.55;;
7334;SDS011;3708;42.632;23.378;2024-01-15T12:25:23;28.15;;;12.02;;
7334;SDS011;3708;42.632;23.378;2024-01-15T12:27:49;21.10;;;12.00;;
7334;SDS011;3708;42.632;23.378;2024-01-15T12:30:16;22.98;;;11.05;;
7334;SDS011;3708;42.632;23.378;2024-01-15T12:32:42;25.60;;;11.20;;
7334;SDS011;3708;42.632;23.378;2024-01-15T12:35:08;21.30;;;10.25;;
7334;SDS011;3708;42.632;23.378;2024-01-15T12:37:35;21.35;;;9.63;;
7334;SDS011;3708;42.632;23.378;2024-01-15T12:42:28;16.70;;;9.40;;
7334;SDS011;3708;42.632;23.378;2024-01-15T12:44:55;13.05;;;7.53;;
7334;SDS011;3708;42.632;23.378;2024-01-15T12:47:21;21.33;;;10.02;;
7334;SDS011;3708;42.632;23.378;2024-01-15T12:49:47;23.83;;;11.63;;
7334;SDS011;3708;42.632;23.378;2024-01-15T12:52:18;19.88;;;9.68;;
7334;SDS011;3708;42.632;23.378;2024-01-15T12:54:46;17.75;;;10.70;;
7334;SDS011;3708;42.632;23.378;2024-01-15T12:57:13;24.27;;;10.55;;
7334;SDS011;3708;42.632;23.378;2024-01-15T12:59:38;25.35;;;10.30;;
7334;SDS011;3708;42.632;23.378;2024-01-15T13:02:04;23.63;;;12.48;;
7334;SDS011;3708;42.632;23.378;2024-01-15T13:04:29;31.90;;;13.07;;
7334;SDS011;3708;42.632;23.378;2024-01-15T13:06:55;27.25;;;13.20;;
7334;SDS011;3708;42.632;23.378;2024-01-15T13:09:20;26.73;;;13.30;;
7334;SDS011;3708;42.632;23.378;2024-01-15T13:11:46;31.38;;;13.95;;
7334;SDS011;3708;42.632;23.378;2024-01-15T13:14:12;30.63;;;14.10;;
7334;SDS011;3708;42.632;23.378;2024-01-15T13:16:41;32.72;;;13.95;;
7334;SDS011;3708;42.632;23.378;2024-01-15T13:19:10;31.58;;;13.30;;
7334;SDS011;3708;42.632;23.378;2024-01-15T13:21:39;35.55;;;15.52;;
7334;SDS011;3708;42.632;23.378;2024-01-15T13:24:05;38.03;;;14.93;;
7334;SDS011;3708;42.632;23.378;2024-01-15T13:26:32;28.13;;;14.77;;
7334;SDS011;3708;42.632;23.378;2024-01-15T13:28:59;30.17;;;14.50;;
7334;SDS011;3708;42.632;23.378;2024-01-15T13:31:26;33.67;;;14.48;;
7334;SDS011;3708;42.632;23.378;2024-01-15T13:33:52;29.27;;;14.95;;
7334;SDS011;3708;42.632;23.378;2024-01-15T13:36:17;24.90;;;13.90;;
7334;SDS011;3708;42.632;23.378;2024-01-15T13:38:43;31.67;;;14.68;;
7334;SDS011;3708;42.632;23.378;2024-01-15T13:41:09;25.02;;;13.77;;
7334;SDS011;3708;42.632;23.378;2024-01-15T13:43:34;30.52;;;12.73;;
7334;SDS011;3708;42.632;23.378;2024-01-15T13:46:00;24.88;;;12.07;;
7334;SDS011;3708;42.632;23.378;2024-01-15T13:48:29;32.70;;;14.15;;
7334;SDS011;3708;42.632;23.378;2024-01-15T13:50:56;27.15;;;12.45;;
7334;SDS011;3708;42.632;23.378;2024-01-15T13:53:22;83.25;;;39.80;;
7334;SDS011;3708;42.632;23.378;2024-01-15T13:55:48;40.72;;;19.48;;
7334;SDS011;3708;42.632;23.378;2024-01-15T13:58:13;30.45;;;12.93;;
7334;SDS011;3708;42.632;23.378;2024-01-15T14:00:39;40.95;;;15.85;;
7334;SDS011;3708;42.632;23.378;2024-01-15T14:03:05;29.70;;;13.65;;
7334;SDS011;3708;42.632;23.378;2024-01-15T14:05:34;22.30;;;11.15;;
7334;SDS011;3708;42.632;23.378;2024-01-15T14:07:59;26.02;;;11.13;;
7334;SDS011;3708;42.632;23.378;2024-01-15T14:10:25;24.80;;;13.02;;
7334;SDS011;3708;42.632;23.378;2024-01-15T14:12:51;27.25;;;13.18;;
7334;SDS011;3708;42.632;23.378;2024-01-15T14:15:16;27.45;;;12.60;;
7334;SDS011;3708;42.632;23.378;2024-01-15T14:17:42;25.08;;;12.38;;
7334;SDS011;3708;42.632;23.378;2024-01-15T14:20:07;13.95;;;7.53;;
7334;SDS011;3708;42.632;23.378;2024-01-15T14:22:34;24.27;;;12.85;;
7334;SDS011;3708;42.632;23.378;2024-01-15T14:25:00;25.05;;;11.00;;
7334;SDS011;3708;42.632;23.378;2024-01-15T14:27:26;25.30;;;12.48;;
7334;SDS011;3708;42.632;23.378;2024-01-15T14:29:51;30.08;;;11.90;;
7334;SDS011;3708;42.632;23.378;2024-01-15T14:32:17;32.53;;;12.35;;
7334;SDS011;3708;42.632;23.378;2024-01-15T14:34:42;25.98;;;11.70;;
7334;SDS011;3708;42.632;23.378;2024-01-15T14:37:08;28.40;;;13.70;;
7334;SDS011;3708;42.632;23.378;2024-01-15T14:39:34;31.75;;;12.95;;
7334;SDS011;3708;42.632;23.378;2024-01-15T14:42:00;29.15;;;10.90;;
7334;SDS011;3708;42.632;23.378;2024-01-15T14:46:53;34.35;;;13.18;;
7334;SDS011;3708;42.632;23.378;2024-01-15T14:49:19;32.35;;;12.85;;
7334;SDS011;3708;42.632;23.378;2024-01-15T14:51:45;35.28;;;14.05;;
7334;SDS011;3708;42.632;23.378;2024-01-15T14:54:11;28.88;;;11.88;;
7334;SDS011;3708;42.632;23.378;2024-01-15T14:56:37;35.25;;;14.10;;
7334;SDS011;3708;42.632;23.378;2024-01-15T14:59:02;29.27;;;15.07;;
7334;SDS011;3708;42.632;23.378;2024-01-15T15:01:28;28.35;;;12.95;;
7334;SDS011;3708;42.632;23.378;2024-01-15T15:03:53;32.65;;;14.73;;